createdAt,value
2023-04-02T00:01:39.289Z,98855.53
2023-04-02T00:05:56.847Z,98863.38
2023-04-02T00:10:03.107Z,98859.78
2023-04-02T00:14:07.979Z,98866.94
2023-04-02T00:18:16.857Z,98867.88
2023-04-02T00:22:21.487Z,98867.16
2023-04-02T00:26:31.876Z,98875.03
2023-04-02T00:30:36.620Z,98867.25
2023-04-02T00:34:41.359Z,98863.06
2023-04-02T00:38:47.510Z,98878.78
2023-04-02T00:42:55.067Z,98868.50
2023-04-02T00:47:04.499Z,98874.56
2023-04-02T00:51:16.052Z,98882.44
2023-04-02T00:55:23.660Z,98886.84
2023-04-02T00:59:30.917Z,98888.50
2023-04-02T01:03:37.501Z,98891.97
2023-04-02T01:08:03.475Z,98890.41
2023-04-02T01:12:29.876Z,98898.28
2023-04-02T01:16:46.859Z,98903.50
2023-04-02T01:21:26.258Z,98905.38
2023-04-02T01:25:36.556Z,98910.00
2023-04-02T01:29:47.432Z,98912.72
2023-04-02T01:33:52.519Z,98920.47
2023-04-02T01:38:07.680Z,98920.69
2023-04-02T01:42:22.133Z,98913.03
2023-04-02T01:46:33.210Z,98922.66
2023-04-02T01:50:38.312Z,98926.13
2023-04-02T01:54:41.555Z,98934.91
2023-04-02T01:58:44.945Z,98939.22
2023-04-02T02:02:52.154Z,98936.59
2023-04-02T02:06:58.838Z,98944.47
2023-04-02T02:11:03.174Z,98943.72
2023-04-02T02:15:15.031Z,98951.91
2023-04-02T02:19:27.340Z,98957.44
2023-04-02T02:23:31.305Z,98953.31
2023-04-02T02:27:51.034Z,98966.72
2023-04-02T02:31:57.606Z,98977.47
2023-04-02T02:36:07.035Z,98976.75
2023-04-02T02:40:17.668Z,98977.78
2023-04-02T02:44:25.324Z,98987.63
2023-04-02T02:48:37.932Z,98974.91
2023-04-02T02:52:48.618Z,98989.97
2023-04-02T02:57:01.721Z,98993.81
2023-04-02T03:01:05.766Z,98996.53
2023-04-02T03:05:09.858Z,99001.75
2023-04-02T03:09:23.463Z,98999.22
2023-04-02T03:13:32.974Z,99007.38
2023-04-02T03:17:41.081Z,99006.44
2023-04-02T03:21:49.607Z,99014.59
2023-04-02T03:26:02.573Z,99012.97
2023-04-02T03:30:19.792Z,99019.91
2023-04-02T03:34:29.906Z,99027.00
2023-04-02T03:38:35.885Z,99027.19
2023-04-02T03:42:47.097Z,99034.13
2023-04-02T03:46:57.774Z,99035.03
2023-04-02T03:51:06.782Z,99041.78
2023-04-02T03:55:16.669Z,99048.41
2023-04-02T03:59:33.114Z,99051.41
2023-04-02T04:03:43.926Z,99053.56
2023-04-02T04:07:47.552Z,99065.13
2023-04-02T04:11:53.823Z,99076.88
2023-04-02T04:16:06.157Z,99079.66
2023-04-02T04:20:22.256Z,99087.13
2023-04-02T04:24:27.139Z,99096.16
2023-04-02T04:28:38.619Z,99098.19
2023-04-02T04:32:51.314Z,99099.47
2023-04-02T04:37:01.926Z,99103.78
2023-04-02T04:41:08.558Z,99107.31
2023-04-02T04:45:36.210Z,99109.94
2023-04-02T04:49:46.302Z,99112.47
2023-04-02T04:53:51.466Z,99118.63
2023-04-02T04:57:58.140Z,99124.72
2023-04-02T05:02:06.301Z,99129.88
2023-04-02T05:06:18.652Z,99140.47
2023-04-02T05:10:30.557Z,99147.41
2023-04-02T05:14:38.184Z,99158.63
2023-04-02T05:18:47.769Z,99151.59
2023-04-02T05:22:54.527Z,99155.16
2023-04-02T05:27:03.850Z,99162.91
2023-04-02T05:31:11.436Z,99170.00
2023-04-02T05:35:22.881Z,99163.34
2023-04-02T05:39:29.265Z,99183.34
2023-04-02T05:43:35.687Z,99177.38
2023-04-02T05:47:43.522Z,99191.00
2023-04-02T05:51:50.636Z,99199.53
2023-04-02T05:56:00.743Z,99208.22
2023-04-02T06:00:11.161Z,99206.69
2023-04-02T06:04:24.208Z,99206.88
2023-04-02T06:08:36.670Z,99221.03
2023-04-02T06:12:46.885Z,99224.75
2023-04-02T06:16:50.210Z,99228.56
2023-04-02T06:20:53.466Z,99238.47
2023-04-02T06:25:02.235Z,99251.81
2023-04-02T06:29:14.698Z,99253.41
2023-04-02T06:33:19.690Z,99261.44
2023-04-02T06:37:28.917Z,99271.09
2023-04-02T18:03:54.097Z,100123.00
2023-04-02T18:08:06.824Z,100126.03
2023-04-02T18:12:27.194Z,100130.78
2023-04-02T18:16:51.525Z,100135.56
2023-04-02T18:21:08.347Z,100138.69
2023-04-02T18:25:27.330Z,100146.16
2023-04-02T18:29:38.266Z,100140.75
2023-04-02T18:34:05.274Z,100140.56
2023-04-02T18:38:30.893Z,100148.19
2023-04-02T18:42:51.237Z,100155.91
2023-04-02T18:46:57.902Z,100154.84
2023-04-02T18:51:02.018Z,100162.59
2023-04-02T18:55:09.588Z,100160.78
2023-04-02T18:59:33.932Z,100164.16
2023-04-02T19:03:43.150Z,100177.09
2023-04-02T19:07:50.999Z,100169.22
2023-04-02T19:11:55.765Z,100169.22
2023-04-02T19:16:25.628Z,100172.69
2023-04-02T19:20:35.355Z,100179.66
2023-04-02T19:24:51.907Z,100183.06
2023-04-02T19:29:05.730Z,100177.84
2023-04-02T19:33:29.412Z,100176.91
2023-04-02T19:37:42.321Z,100188.13
2023-04-02T19:41:51.543Z,100192.44
2023-04-02T19:45:58.751Z,100193.34
2023-04-02T19:50:01.900Z,100198.63
2023-04-02T19:54:05.535Z,100202.06
2023-04-02T19:58:25.031Z,100207.28
2023-04-02T20:02:29.796Z,100206.47
2023-04-02T20:06:33.630Z,100206.38
2023-04-02T20:10:36.743Z,100212.44
2023-04-02T20:14:39.782Z,100223.53
2023-04-02T20:18:47.171Z,100226.03
2023-04-02T20:22:50.867Z,100233.03
2023-04-02T20:26:53.912Z,100227.81
2023-04-02T20:31:07.096Z,100233.97
2023-04-02T20:35:13.918Z,100247.97
2023-04-02T20:39:20.497Z,100247.28
2023-04-02T20:43:25.612Z,100251.69
2023-04-02T20:47:28.796Z,100250.88
2023-04-02T20:51:34.507Z,100263.16
2023-04-02T20:55:37.689Z,100257.09
2023-04-02T20:59:40.719Z,100262.41
2023-04-02T21:03:43.918Z,100267.66
2023-04-02T21:07:49.481Z,100271.22
2023-04-02T21:11:52.748Z,100269.59
2023-04-02T21:15:55.923Z,100268.75
2023-04-02T21:19:59.390Z,100277.50
2023-04-02T21:24:05.964Z,100281.00
2023-04-02T21:28:08.842Z,100283.63
2023-04-02T21:32:20.899Z,100271.53
2023-04-02T21:36:26.748Z,100285.53
2023-04-02T21:40:33.603Z,100294.25
2023-04-02T21:44:37.302Z,100289.22
2023-04-02T21:48:40.776Z,100298.00
2023-04-02T21:52:43.456Z,100299.00
2023-04-02T21:56:47.822Z,100299.97
2023-04-02T22:00:51.194Z,100297.59
2023-04-02T22:04:54.089Z,100303.78
2023-04-02T22:08:59.255Z,100311.63
2023-04-02T22:13:03.919Z,100316.88
2023-04-02T22:17:07.590Z,100320.47
2023-04-02T22:21:12.101Z,100323.16
2023-04-02T22:25:15.063Z,100317.13
2023-04-02T22:29:19.873Z,100330.22
2023-04-02T22:33:23.193Z,100328.44
2023-04-02T22:37:26.357Z,100331.19
2023-04-02T22:41:32.201Z,100335.75
2023-04-02T22:45:36.695Z,100338.53
2023-04-02T22:49:41.760Z,100336.91
2023-04-02T22:53:46.235Z,100329.16
2023-04-02T22:57:57.237Z,100333.66
2023-04-02T23:02:13.351Z,100336.25
2023-04-02T23:06:19.228Z,100340.59
2023-04-02T23:10:22.199Z,100338.06
2023-04-02T23:14:24.716Z,100341.75
2023-04-02T23:18:29.196Z,100349.78
2023-04-02T23:22:32.534Z,100356.81
2023-04-02T23:26:35.565Z,100351.72
2023-04-02T23:30:38.835Z,100356.28
2023-04-02T23:34:43.506Z,100360.94
2023-04-02T23:38:46.656Z,100350.66
2023-04-02T23:42:49.516Z,100361.28
2023-04-02T23:46:52.842Z,100369.34
2023-04-02T23:50:57.283Z,100368.69
2023-04-02T23:55:00.738Z,100371.41
2023-04-02T23:59:04.161Z,100374.19
